Time;durP1;ratioP1;P1;durP2;ratioP2;P2;SDS_P1;SDS_P2;PMS_P1;PMS_P2;Temp;Humidity;BMP_temperature;BMP_pressure;BME280_temperature;BME280_humidity;BME280_pressure;Samples;Min_cycle;Max_cycle;Signal;HPM_P1;HPM_P2
2023/01/06 00:00:19;;;;;;;2.77;1.87;;;13.90;99.90;;;;;;959441;149;27314;-75
2023/01/06 00:02:45;;;;;;;3.50;1.87;;;13.90;99.90;;;;;;960231;146;27298;-75
2023/01/06 00:05:12;;;;;;;2.17;1.80;;;13.90;99.90;;;;;;961210;146;27811;-77
2023/01/06 00:07:38;;;;;;;3.33;1.60;;;13.90;99.90;;;;;;959435;149;27345;-78
2023/01/06 00:10:05;;;;;;;3.58;1.77;;;14.00;99.90;;;;;;960345;149;27349;-74
2023/01/06 00:12:31;;;;;;;1.70;1.27;;;14.00;99.90;;;;;;960240;149;27762;-75
2023/01/06 00:14:58;;;;;;;1.87;1.77;;;14.00;99.90;;;;;;960615;149;27314;-76
2023/01/06 00:17:25;;;;;;;2.40;2.02;;;14.00;99.90;;;;;;960002;146;27430;-76
2023/01/06 00:19:51;;;;;;;1.70;1.60;;;14.00;99.90;;;;;;960637;149;27349;-74
2023/01/06 00:22:18;;;;;;;3.42;2.00;;;14.00;99.90;;;;;;960815;148;27695;-74
2023/01/06 00:24:44;;;;;;;3.27;1.77;;;14.00;99.90;;;;;;960334;146;27313;-75
2023/01/06 00:27:11;;;;;;;2.25;1.72;;;14.10;99.90;;;;;;960837;147;28070;-76
2023/01/06 00:29:38;;;;;;;2.40;1.70;;;14.10;99.90;;;;;;960340;149;27325;-78
2023/01/06 00:32:04;;;;;;;1.90;1.67;;;14.10;99.90;;;;;;960293;149;27418;-75
2023/01/06 00:34:31;;;;;;;1.90;1.70;;;14.10;99.90;;;;;;958207;146;27350;-74
2023/01/06 00:36:57;;;;;;;1.70;1.60;;;14.10;99.90;;;;;;959686;149;27367;-74
2023/01/06 00:39:24;;;;;;;2.50;2.02;;;14.10;99.90;;;;;;959933;146;27262;-77
2023/01/06 00:42:03;;;;;;;2.87;1.47;;;14.10;99.90;;;;;;960596;148;27724;-79
2023/01/06 00:44:29;;;;;;;1.75;1.65;;;14.10;99.90;;;;;;960423;146;27473;-75
2023/01/06 00:46:56;;;;;;;1.98;1.50;;;14.00;99.90;;;;;;959986;148;27331;-75
2023/01/06 00:49:22;;;;;;;2.80;1.62;;;14.00;99.90;;;;;;960512;146;27414;-75
2023/01/06 00:51:49;;;;;;;1.70;1.60;;;14.00;99.90;;;;;;959408;148;27389;-75
2023/01/06 00:54:16;;;;;;;1.77;1.62;;;14.00;99.90;;;;;;959951;146;27345;-74
2023/01/06 00:56:42;;;;;;;2.00;1.80;;;14.00;99.90;;;;;;959683;149;27808;-74
2023/01/06 00:59:09;;;;;;;2.75;1.72;;;14.00;99.90;;;;;;959150;149;27322;-75
2023/01/06 01:01:35;;;;;;;2.58;1.80;;;14.00;99.90;;;;;;959314;146;27323;-78
2023/01/06 01:04:02;;;;;;;2.12;1.92;;;14.00;99.90;;;;;;959660;149;27334;-78
2023/01/06 01:06:29;;;;;;;2.15;1.92;;;14.10;99.90;;;;;;959724;149;27397;-74
2023/01/06 01:08:55;;;;;;;3.70;1.75;;;14.10;99.90;;;;;;959896;149;27311;-75
2023/01/06 01:14:07;;;;;;;1.67;1.57;;;14.10;99.90;;;;;;959992;149;27486;-75
2023/01/06 01:16:33;;;;;;;2.27;2.10;;;14.10;99.90;;;;;;960692;148;27308;-77
2023/01/06 01:19:00;;;;;;;2.42;1.80;;;14.10;99.90;;;;;;955932;149;27481;-74
2023/01/06 01:21:26;;;;;;;3.45;2.12;;;14.00;99.90;;;;;;953427;147;27411;-74
2023/01/06 01:23:53;;;;;;;2.23;1.93;;;14.00;99.90;;;;;;954069;149;27298;-74
2023/01/06 01:26:20;;;;;;;1.85;1.75;;;14.00;99.90;;;;;;953903;147;27299;-77
2023/01/06 01:28:46;;;;;;;2.40;2.02;;;14.00;99.90;;;;;;953997;148;27346;-74
2023/01/06 01:31:14;;;;;;;1.95;1.82;;;14.00;99.90;;;;;;953380;148;27436;-74
2023/01/06 01:33:39;;;;;;;2.20;2.10;;;14.00;99.90;;;;;;952395;147;27310;-75
2023/01/06 01:36:06;;;;;;;2.40;2.20;;;14.00;99.90;;;;;;953993;147;27395;-74
2023/01/06 01:38:33;;;;;;;2.00;1.90;;;14.00;99.90;;;;;;953647;149;27361;-78
2023/01/06 01:40:59;;;;;;;2.83;2.22;;;13.90;99.90;;;;;;953525;147;27358;-75
2023/01/06 01:43:26;;;;;;;2.30;1.83;;;13.90;99.90;;;;;;952548;147;27303;-76
2023/01/06 01:45:52;;;;;;;2.00;1.80;;;13.90;99.90;;;;;;950315;148;27396;-74
2023/01/06 01:48:25;;;;;;;2.47;1.87;;;13.90;99.90;;;;;;953258;149;27315;-77
2023/01/06 01:50:51;;;;;;;2.50;2.30;;;13.90;99.90;;;;;;953465;148;27357;-74
2023/01/06 01:53:18;;;;;;;2.30;2.10;;;13.90;99.90;;;;;;953984;150;27354;-74
2023/01/06 01:55:45;;;;;;;2.07;1.90;;;13.90;99.90;;;;;;953208;149;27334;-74
2023/01/06 01:58:14;;;;;;;2.62;2.00;;;13.90;99.90;;;;;;953469;147;27286;-74
2023/01/06 02:00:41;;;;;;;3.10;2.90;;;13.90;99.90;;;;;;952436;150;27364;-77
2023/01/06 02:03:07;;;;;;;2.65;2.35;;;13.90;99.90;;;;;;952910;147;27338;-74
2023/01/06 02:05:34;;;;;;;2.45;2.27;;;14.00;99.90;;;;;;953374;149;27802;-74
2023/01/06 02:08:00;;;;;;;2.30;2.10;;;14.00;99.90;;;;;;953582;147;27388;-74
2023/01/06 02:10:27;;;;;;;2.05;1.92;;;14.00;99.90;;;;;;953556;150;27363;-75
2023/01/06 02:12:54;;;;;;;3.40;2.20;;;14.00;99.90;;;;;;953596;150;27330;-77
2023/01/06 02:15:23;;;;;;;4.13;2.40;;;14.00;99.90;;;;;;952536;147;27979;-75
2023/01/06 02:18:02;;;;;;;2.33;2.23;;;14.00;99.90;;;;;;953397;147;27429;-73
2023/01/06 02:20:40;;;;;;;2.37;2.20;;;14.00;99.90;;;;;;952727;148;27322;-77
2023/01/06 02:23:33;;;;;;;2.95;2.37;;;14.00;99.90;;;;;;953703;147;27484;-74
2023/01/06 02:26:22;;;;;;;3.27;2.30;;;14.00;99.90;;;;;;953805;149;27336;-74
2023/01/06 02:29:00;;;;;;;2.05;1.95;;;14.00;99.90;;;;;;951161;147;27433;-73
2023/01/06 02:31:38;;;;;;;1.92;1.77;;;14.00;99.90;;;;;;951344;150;27397;-77
2023/01/06 02:34:05;;;;;;;2.53;1.83;;;13.90;99.90;;;;;;953410;148;27354;-74
2023/01/06 02:36:34;;;;;;;2.00;1.90;;;13.90;99.90;;;;;;952376;149;28354;-73
2023/01/06 02:39:01;;;;;;;2.03;1.80;;;14.00;99.90;;;;;;934136;149;27385;-74
2023/01/06 02:41:36;;;;;;;1.67;1.57;;;13.90;99.90;;;;;;947697;146;27399;-73
2023/01/06 02:44:03;;;;;;;1.77;1.67;;;13.90;99.90;;;;;;935803;149;27345;-74
2023/01/06 02:46:53;;;;;;;1.70;1.60;;;13.90;99.90;;;;;;933334;149;27341;-74
2023/01/06 02:49:20;;;;;;;1.80;1.70;;;13.90;99.90;;;;;;950306;147;27292;-75
2023/01/06 02:51:55;;;;;;;1.60;1.50;;;13.90;99.90;;;;;;951898;147;27899;-77
2023/01/06 02:54:40;;;;;;;2.10;2.00;;;13.90;99.90;;;;;;935710;149;27868;-76
2023/01/06 02:57:10;;;;;;;1.90;1.80;;;13.90;99.90;;;;;;929014;149;27387;-77
2023/01/06 02:59:37;;;;;;;2.35;2.15;;;13.90;99.90;;;;;;933556;150;27374;-74
2023/01/06 03:02:03;;;;;;;1.90;1.80;;;13.80;99.90;;;;;;950029;146;27283;-74
2023/01/06 03:04:35;;;;;;;2.03;1.93;;;13.80;99.90;;;;;;934252;150;27349;-75
2023/01/06 03:07:02;;;;;;;1.93;1.83;;;13.80;99.90;;;;;;936399;149;27525;-74
2023/01/06 03:09:31;;;;;;;2.67;2.23;;;13.70;99.90;;;;;;951078;147;27414;-75
2023/01/06 03:11:58;;;;;;;2.08;1.98;;;13.70;99.90;;;;;;948276;148;27284;-75
2023/01/06 03:14:27;;;;;;;2.47;2.30;;;13.70;99.90;;;;;;951001;146;27442;-78
2023/01/06 03:16:54;;;;;;;1.80;1.70;;;13.70;99.90;;;;;;951393;147;27450;-74
2023/01/06 03:19:20;;;;;;;2.47;2.27;;;13.70;99.90;;;;;;950268;147;27380;-75
2023/01/06 03:21:47;;;;;;;2.52;2.33;;;13.70;99.90;;;;;;951552;147;27403;-76
2023/01/06 03:24:13;;;;;;;2.22;2.12;;;13.70;99.90;;;;;;951051;147;27369;-78
2023/01/06 03:26:40;;;;;;;2.37;2.27;;;13.70;99.90;;;;;;951603;147;27828;-74
2023/01/06 03:29:07;;;;;;;2.00;1.90;;;13.70;99.90;;;;;;950969;147;27332;-74
2023/01/06 03:31:33;;;;;;;2.47;2.27;;;13.70;99.90;;;;;;951408;147;27720;-75
2023/01/06 03:34:37;;;;;;;2.07;1.97;;;13.80;99.90;;;;;;950574;147;27244;-74
2023/01/06 03:37:22;;;;;;;1.53;1.43;;;13.80;99.90;;;;;;951147;147;27340;-75
2023/01/06 03:39:51;;;;;;;1.20;1.20;;;13.80;99.90;;;;;;952786;147;27291;-77
2023/01/06 03:46:00;;;;;;;1.40;1.30;;;13.80;99.90;;;;;;951772;147;27356;-78
2023/01/06 03:48:42;;;;;;;1.47;1.40;;;13.80;99.90;;;;;;927125;150;27463;-74
2023/01/06 03:51:14;;;;;;;1.50;1.40;;;13.80;99.90;;;;;;933767;150;27313;-79
2023/01/06 03:53:41;;;;;;;1.62;1.52;;;13.80;99.90;;;;;;934058;149;27313;-76
2023/01/06 03:56:29;;;;;;;4.75;1.90;;;13.80;99.90;;;;;;924377;150;27382;-76
2023/01/06 03:58:55;;;;;;;1.50;1.40;;;13.70;99.90;;;;;;933560;150;27477;-77
2023/01/06 04:01:22;;;;;;;2.57;1.50;;;13.70;99.90;;;;;;935063;149;27294;-76
2023/01/06 04:03:48;;;;;;;1.55;1.50;;;13.70;99.90;;;;;;950372;147;27308;-76
2023/01/06 04:06:15;;;;;;;1.50;1.40;;;13.70;99.90;;;;;;935014;149;27322;-77
2023/01/06 04:08:42;;;;;;;1.40;1.30;;;13.70;99.90;;;;;;951662;147;27462;-77
2023/01/06 04:12:37;;;;;;;1.47;1.37;;;13.70;99.90;;;;;;927205;150;27248;-77
2023/01/06 04:13:35;;;;;;;1.60;1.50;;;13.70;99.90;;;;;;949694;147;27396;-76
2023/01/06 04:16:01;;;;;;;1.20;1.20;;;13.80;99.90;;;;;;950713;147;27743;-76
2023/01/06 04:18:28;;;;;;;2.07;1.47;;;13.80;99.90;;;;;;952027;147;27429;-76
2023/01/06 04:20:54;;;;;;;1.47;1.37;;;13.80;99.90;;;;;;951193;147;27358;-76
2023/01/06 04:23:21;;;;;;;2.05;1.20;;;13.80;99.90;;;;;;951844;147;27359;-76
2023/01/06 04:25:48;;;;;;;1.42;1.40;;;13.80;99.90;;;;;;934977;149;27368;-76
2023/01/06 04:28:14;;;;;;;1.60;1.50;;;13.80;99.90;;;;;;952570;147;27373;-77
2023/01/06 04:30:41;;;;;;;1.67;1.40;;;13.80;99.90;;;;;;935044;149;27372;-76
2023/01/06 04:33:07;;;;;;;1.50;1.40;;;13.80;99.90;;;;;;951628;147;27319;-76
2023/01/06 04:35:34;;;;;;;1.52;1.42;;;13.80;99.90;;;;;;934601;149;27329;-77
2023/01/06 04:38:01;;;;;;;1.60;1.50;;;13.80;99.90;;;;;;952083;147;27283;-75
2023/01/06 04:40:27;;;;;;;1.72;1.60;;;13.70;99.90;;;;;;932503;149;27356;-77
2023/01/06 04:43:05;;;;;;;1.85;1.75;;;13.70;99.90;;;;;;951266;147;27327;-76
2023/01/06 04:45:32;;;;;;;1.67;1.57;;;13.70;99.90;;;;;;950679;147;27974;-76
2023/01/06 04:47:59;;;;;;;3.37;1.40;;;13.70;99.90;;;;;;952061;147;27304;-76
2023/01/06 04:50:25;;;;;;;1.65;1.55;;;13.70;99.90;;;;;;950962;147;27337;-76
2023/01/06 04:52:52;;;;;;;1.32;1.30;;;13.70;99.90;;;;;;952157;147;27335;-76
2023/01/06 04:55:18;;;;;;;1.98;1.27;;;13.70;99.90;;;;;;936325;149;27464;-75
2023/01/06 04:57:45;;;;;;;1.75;1.20;;;13.70;99.90;;;;;;951871;147;27352;-76
2023/01/06 05:00:12;;;;;;;1.07;1.07;;;13.70;99.90;;;;;;934444;149;27327;-76
2023/01/06 05:02:38;;;;;;;1.57;1.22;;;13.70;99.90;;;;;;950939;146;27785;-76
2023/01/06 05:05:05;;;;;;;1.37;1.00;;;13.80;99.90;;;;;;935860;149;27352;-76
2023/01/06 05:07:31;;;;;;;1.37;1.20;;;13.70;99.90;;;;;;933805;150;27620;-76
2023/01/06 05:09:58;;;;;;;1.10;1.10;;;13.80;99.90;;;;;;935672;149;27325;-76
2023/01/06 05:12:24;;;;;;;1.25;1.15;;;13.80;99.90;;;;;;951940;147;27435;-77
2023/01/06 05:14:51;;;;;;;1.75;1.22;;;13.80;99.90;;;;;;951405;147;27436;-76
2023/01/06 05:17:18;;;;;;;1.00;0.90;;;13.80;99.90;;;;;;951553;147;27302;-76
2023/01/06 05:19:44;;;;;;;1.30;1.20;;;13.80;99.90;;;;;;927318;150;27365;-76
2023/01/06 05:22:11;;;;;;;2.23;1.33;;;13.80;99.90;;;;;;934719;150;27389;-77
2023/01/06 05:24:37;;;;;;;2.80;1.67;;;13.80;99.90;;;;;;927371;150;27446;-76
2023/01/06 05:27:04;;;;;;;1.47;1.33;;;13.80;99.90;;;;;;934250;150;27384;-76
2023/01/06 05:29:31;;;;;;;1.17;1.07;;;13.80;99.90;;;;;;933885;149;27442;-76
2023/01/06 05:31:57;;;;;;;1.03;1.03;;;13.80;99.90;;;;;;952455;147;27323;-76
2023/01/06 05:34:25;;;;;;;1.27;1.13;;;13.80;99.90;;;;;;934671;149;27446;-77
2023/01/06 05:36:51;;;;;;;1.40;1.30;;;13.80;99.90;;;;;;952446;147;27423;-77
2023/01/06 05:39:18;;;;;;;0.98;0.95;;;13.70;99.90;;;;;;935305;149;27332;-76
2023/01/06 05:41:44;;;;;;;0.90;0.90;;;13.70;99.90;;;;;;927200;150;27249;-76
2023/01/06 05:44:11;;;;;;;4.12;1.07;;;13.70;99.90;;;;;;934565;150;27326;-77
2023/01/06 05:46:38;;;;;;;1.22;1.12;;;13.70;99.90;;;;;;929028;150;27318;-76
2023/01/06 05:49:04;;;;;;;1.87;1.00;;;13.70;99.90;;;;;;942761;148;27367;-77
2023/01/06 05:51:31;;;;;;;1.00;1.00;;;13.70;99.90;;;;;;931129;149;27361;-76
2023/01/06 05:53:57;;;;;;;1.27;1.17;;;13.70;99.90;;;;;;929655;150;27417;-76
2023/01/06 05:56:24;;;;;;;3.30;1.20;;;13.70;99.90;;;;;;935457;149;27328;-76
2023/01/06 05:58:51;;;;;;;2.20;0.77;;;13.70;99.90;;;;;;952258;147;27303;-78
2023/01/06 06:01:23;;;;;;;2.83;1.20;;;13.70;99.90;;;;;;934751;150;27362;-76
2023/01/06 06:03:50;;;;;;;1.47;1.00;;;13.70;99.90;;;;;;934516;150;27346;-76
2023/01/06 06:06:16;;;;;;;1.77;0.90;;;13.70;99.90;;;;;;933036;149;27327;-76
2023/01/06 06:08:43;;;;;;;0.90;0.80;;;13.60;99.90;;;;;;926767;150;27381;-76
2023/01/06 06:11:09;;;;;;;1.00;0.90;;;13.60;99.90;;;;;;927363;150;27366;-78
2023/01/06 06:13:36;;;;;;;0.85;0.85;;;13.60;99.90;;;;;;951915;147;27443;-76
2023/01/06 06:16:03;;;;;;;1.07;1.07;;;13.60;99.90;;;;;;926713;150;27337;-76
2023/01/06 06:18:29;;;;;;;1.00;1.00;;;13.60;99.90;;;;;;951354;147;27298;-76
2023/01/06 06:21:02;;;;;;;1.20;1.00;;;13.60;99.90;;;;;;952227;147;27362;-77
2023/01/06 06:23:28;;;;;;;1.23;1.00;;;13.60;99.90;;;;;;963889;145;27612;-77
2023/01/06 06:25:55;;;;;;;1.47;1.37;;;13.60;99.90;;;;;;964416;146;27384;-76
2023/01/06 06:28:22;;;;;;;1.10;1.10;;;13.60;99.90;;;;;;964127;145;27338;-76
2023/01/06 06:30:48;;;;;;;1.47;1.37;;;13.60;99.90;;;;;;964036;145;27392;-77
2023/01/06 06:33:15;;;;;;;2.42;1.10;;;13.60;99.90;;;;;;964402;145;27363;-75
2023/01/06 06:35:41;;;;;;;2.50;2.30;;;13.60;99.90;;;;;;964039;146;27430;-77
2023/01/06 06:38:08;;;;;;;2.90;2.70;;;13.60;99.90;;;;;;964449;145;27385;-76
2023/01/06 06:40:35;;;;;;;2.08;1.90;;;13.60;99.90;;;;;;964354;148;27301;-77
2023/01/06 06:43:01;;;;;;;1.80;1.70;;;13.60;99.90;;;;;;964575;148;27337;-77
2023/01/06 06:45:28;;;;;;;1.55;1.40;;;13.60;99.90;;;;;;964719;148;27448;-76
2023/01/06 06:47:54;;;;;;;1.60;1.50;;;13.60;99.90;;;;;;964582;148;27345;-77
2023/01/06 06:50:21;;;;;;;1.98;1.47;;;13.50;99.90;;;;;;964435;145;27433;-77
2023/01/06 06:52:48;;;;;;;1.23;1.13;;;13.50;99.90;;;;;;964840;146;27404;-76
2023/01/06 06:55:14;;;;;;;1.87;1.60;;;13.50;99.90;;;;;;965090;148;27430;-76
2023/01/06 06:57:41;;;;;;;1.82;1.60;;;13.50;99.90;;;;;;963033;148;27448;-76
2023/01/06 07:00:08;;;;;;;1.80;1.70;;;13.40;99.90;;;;;;964620;148;27406;-76
2023/01/06 07:02:34;;;;;;;1.60;1.50;;;13.40;99.90;;;;;;963815;145;27375;-77
2023/01/06 07:05:01;;;;;;;3.65;2.67;;;13.40;99.90;;;;;;964546;148;27386;-77
2023/01/06 07:07:27;;;;;;;1.80;1.70;;;13.40;99.90;;;;;;963834;145;27317;-78
2023/01/06 07:09:54;;;;;;;2.00;1.30;;;13.40;99.90;;;;;;965181;145;27352;-78
2023/01/06 07:12:21;;;;;;;1.80;1.20;;;13.40;99.90;;;;;;962570;145;27305;-77
2023/01/06 07:14:47;;;;;;;1.45;0.90;;;13.30;99.90;;;;;;964206;145;27325;-77
2023/01/06 07:17:14;;;;;;;1.60;1.47;;;13.30;99.90;;;;;;963628;148;27385;-77
2023/01/06 07:19:40;;;;;;;1.30;1.23;;;13.40;99.90;;;;;;964231;145;27446;-77
2023/01/06 07:22:07;;;;;;;1.07;0.80;;;13.30;99.90;;;;;;963056;146;27478;-76
2023/01/06 07:24:33;;;;;;;0.90;0.90;;;13.30;99.90;;;;;;926833;150;27418;-77
2023/01/06 07:27:00;;;;;;;1.02;1.02;;;13.30;99.90;;;;;;934615;150;27431;-77
2023/01/06 07:29:27;;;;;;;1.22;0.80;;;13.30;99.90;;;;;;934720;149;27346;-77
2023/01/06 07:31:53;;;;;;;0.90;0.65;;;13.30;99.90;;;;;;951238;145;27499;-77
2023/01/06 07:34:20;;;;;;;0.83;0.80;;;13.30;99.90;;;;;;935582;149;27429;-77
2023/01/06 07:36:46;;;;;;;1.65;0.80;;;13.30;99.90;;;;;;937602;149;27393;-77
2023/01/06 07:39:13;;;;;;;1.47;1.07;;;13.40;99.90;;;;;;948489;148;27329;-77
2023/01/06 07:41:40;;;;;;;0.90;0.90;;;13.30;99.90;;;;;;939559;150;27317;-77
2023/01/06 07:44:06;;;;;;;1.00;0.70;;;13.30;99.90;;;;;;939759;150;27367;-77
2023/01/06 07:46:33;;;;;;;0.70;0.70;;;13.30;99.90;;;;;;938199;150;27328;-76
2023/01/06 07:48:59;;;;;;;0.80;0.80;;;13.30;99.90;;;;;;939024;149;27425;-77
2023/01/06 07:51:26;;;;;;;0.82;0.82;;;13.30;99.90;;;;;;938847;150;27321;-77
2023/01/06 07:53:53;;;;;;;0.70;0.70;;;13.40;99.90;;;;;;939591;150;27473;-77
2023/01/06 07:56:20;;;;;;;0.70;0.70;;;13.40;99.90;;;;;;939160;150;27352;-77
2023/01/06 07:58:46;;;;;;;1.40;0.80;;;13.40;99.90;;;;;;938218;149;27328;-77
2023/01/06 08:01:12;;;;;;;0.97;0.87;;;13.40;99.90;;;;;;939502;150;27289;-77
2023/01/06 08:03:39;;;;;;;0.62;0.60;;;13.50;99.90;;;;;;939416;150;27372;-77
2023/01/06 08:06:05;;;;;;;0.90;0.70;;;13.50;99.90;;;;;;938246;150;27363;-77
2023/01/06 08:08:32;;;;;;;0.70;0.70;;;13.50;99.90;;;;;;938950;150;27321;-76
2023/01/06 08:10:59;;;;;;;0.53;0.40;;;13.50;99.90;;;;;;939184;150;27680;-77
2023/01/06 08:13:25;;;;;;;0.40;0.40;;;13.50;99.90;;;;;;938955;150;27376;-77
2023/01/06 08:15:52;;;;;;;0.80;0.80;;;13.60;99.90;;;;;;939667;150;27465;-76
2023/01/06 08:18:19;;;;;;;1.00;0.60;;;13.60;99.90;;;;;;938602;150;27309;-77
2023/01/06 08:20:45;;;;;;;1.40;0.70;;;13.60;99.90;;;;;;939565;149;27297;-76
2023/01/06 08:23:12;;;;;;;0.88;0.55;;;13.70;99.90;;;;;;942430;148;27464;-77
2023/01/06 08:25:38;;;;;;;0.42;0.42;;;13.70;99.90;;;;;;945177;148;27420;-77
2023/01/06 08:28:05;;;;;;;0.70;0.37;;;13.70;99.90;;;;;;945257;149;27452;-76
2023/01/06 08:30:38;;;;;;;0.70;0.60;;;13.80;99.90;;;;;;945454;149;27428;-76
2023/01/06 08:32:58;;;;;;;0.70;0.70;;;13.80;99.90;;;;;;944492;149;27335;-77
2023/01/06 08:35:25;;;;;;;0.65;0.65;;;13.90;99.90;;;;;;943200;149;27262;-77
2023/01/06 08:37:51;;;;;;;0.57;0.55;;;13.90;99.90;;;;;;944732;149;27371;-77
2023/01/06 08:40:18;;;;;;;0.80;0.80;;;14.00;99.90;;;;;;946108;149;27363;-77
2023/01/06 08:42:44;;;;;;;0.60;0.60;;;14.00;99.90;;;;;;944269;149;27354;-77
2023/01/06 08:45:11;;;;;;;0.53;0.47;;;14.10;99.90;;;;;;944053;149;27488;-76
2023/01/06 08:47:37;;;;;;;1.37;0.57;;;14.20;99.90;;;;;;945613;148;27277;-77
2023/01/06 08:50:04;;;;;;;0.55;0.55;;;14.20;99.90;;;;;;945547;149;27449;-77
2023/01/06 08:52:31;;;;;;;0.40;0.40;;;14.20;99.90;;;;;;946185;149;27339;-77
2023/01/06 08:54:58;;;;;;;0.60;0.60;;;14.20;99.90;;;;;;946406;149;27349;-77
2023/01/06 08:57:24;;;;;;;1.05;0.50;;;14.20;99.90;;;;;;945517;149;27303;-77
2023/01/06 08:59:50;;;;;;;0.50;0.50;;;14.20;99.90;;;;;;945604;148;27456;-76
2023/01/06 09:02:17;;;;;;;0.65;0.60;;;14.20;99.90;;;;;;945808;149;28122;-76
2023/01/06 09:04:44;;;;;;;0.40;0.40;;;14.20;99.60;;;;;;944966;149;27367;-76
2023/01/06 09:07:10;;;;;;;1.67;1.02;;;14.20;99.60;;;;;;945981;149;27359;-77
2023/01/06 09:09:37;;;;;;;0.80;0.60;;;14.20;99.30;;;;;;945719;149;27319;-77
2023/01/06 09:12:03;;;;;;;1.00;0.53;;;14.20;99.10;;;;;;945971;149;27444;-77
2023/01/06 09:14:30;;;;;;;0.40;0.40;;;14.20;99.00;;;;;;946410;149;27260;-77
2023/01/06 09:16:57;;;;;;;0.50;0.50;;;14.20;98.80;;;;;;946577;149;27343;-77
2023/01/06 09:19:23;;;;;;;0.37;0.30;;;14.20;98.40;;;;;;945718;148;27327;-77
2023/01/06 09:21:50;;;;;;;0.37;0.37;;;14.30;98.30;;;;;;949662;148;27805;-76
2023/01/06 09:24:16;;;;;;;0.78;0.50;;;14.20;98.40;;;;;;947467;148;27393;-77
2023/01/06 09:26:43;;;;;;;0.80;0.80;;;14.20;97.90;;;;;;933460;149;27881;-76
2023/01/06 09:29:09;;;;;;;0.68;0.68;;;14.20;97.60;;;;;;933144;149;27430;-77
2023/01/06 09:31:36;;;;;;;1.27;0.60;;;14.30;97.70;;;;;;933764;149;27310;-77
2023/01/06 09:34:03;;;;;;;0.60;0.60;;;14.20;97.60;;;;;;952255;146;27352;-77
2023/01/06 09:36:31;;;;;;;1.10;1.10;;;14.20;97.40;;;;;;931323;149;27328;-77
2023/01/06 09:38:56;;;;;;;1.37;1.27;;;14.20;97.20;;;;;;949664;146;27318;-77
2023/01/06 09:41:31;;;;;;;1.40;1.30;;;14.30;97.10;;;;;;933952;149;27351;-77
2023/01/06 09:43:58;;;;;;;0.90;0.90;;;14.30;96.90;;;;;;935133;149;27405;-76
2023/01/06 09:46:27;;;;;;;0.88;0.80;;;14.30;96.70;;;;;;940056;149;27441;-76
2023/01/06 09:49:18;;;;;;;2.62;1.50;;;14.20;96.60;;;;;;934037;149;27428;-77
2023/01/06 09:51:45;;;;;;;1.05;1.02;;;14.20;96.60;;;;;;940754;149;27420;-77
2023/01/06 09:54:32;;;;;;;1.87;1.77;;;14.20;96.50;;;;;;951589;146;27386;-76
2023/01/06 09:56:59;;;;;;;1.90;1.70;;;14.20;96.30;;;;;;929607;149;27379;-76
2023/01/06 09:59:47;;;;;;;3.25;1.40;;;14.20;96.40;;;;;;928790;149;27328;-76
2023/01/06 10:02:29;;;;;;;1.37;1.27;;;14.20;96.40;;;;;;951048;146;27318;-77
2023/01/06 10:04:55;;;;;;;1.60;1.50;;;14.20;96.30;;;;;;922534;149;27348;-77
2023/01/06 10:07:25;;;;;;;1.62;1.47;;;14.20;96.30;;;;;;934148;149;27805;-77
2023/01/06 10:09:57;;;;;;;0.90;0.88;;;14.20;96.40;;;;;;949627;146;28399;-77
2023/01/06 10:12:26;;;;;;;1.72;1.62;;;14.20;96.40;;;;;;932966;149;27344;-76
2023/01/06 10:14:59;;;;;;;1.57;1.27;;;14.20;96.20;;;;;;919177;146;27427;-77
2023/01/06 10:17:56;;;;;;;1.57;1.20;;;14.30;96.10;;;;;;931458;149;27451;-76
2023/01/06 10:20:44;;;;;;;1.85;0.80;;;14.30;96.20;;;;;;950683;146;27448;-77
2023/01/06 10:23:28;;;;;;;0.72;0.70;;;14.30;96.00;;;;;;950275;146;27382;-77
2023/01/06 10:25:55;;;;;;;2.00;1.00;;;14.30;95.70;;;;;;954237;146;27389;-76
2023/01/06 10:28:28;;;;;;;2.33;0.85;;;14.30;95.80;;;;;;953975;146;27236;-76
2023/01/06 10:30:51;;;;;;;1.72;1.02;;;14.30;95.70;;;;;;953915;146;27291;-77
2023/01/06 10:33:24;;;;;;;0.70;0.70;;;14.40;95.50;;;;;;955178;146;27419;-76
2023/01/06 10:35:50;;;;;;;0.70;0.70;;;14.40;95.50;;;;;;955750;146;27317;-76
2023/01/06 10:38:17;;;;;;;0.53;0.53;;;14.40;95.20;;;;;;954419;146;27411;-76
2023/01/06 10:40:43;;;;;;;1.90;0.72;;;14.40;95.10;;;;;;954735;146;27901;-76
2023/01/06 10:43:10;;;;;;;0.78;0.60;;;14.40;94.60;;;;;;955220;146;27334;-77
2023/01/06 10:45:42;;;;;;;0.93;0.60;;;14.40;94.70;;;;;;956016;146;27291;-76
2023/01/06 10:48:12;;;;;;;1.30;0.60;;;14.40;94.60;;;;;;954310;146;27357;-76
2023/01/06 10:50:38;;;;;;;0.68;0.47;;;14.40;94.60;;;;;;938084;148;27305;-76
2023/01/06 10:53:05;;;;;;;0.72;0.50;;;14.40;94.50;;;;;;951664;148;27446;-76
2023/01/06 10:55:31;;;;;;;0.68;0.68;;;14.40;94.50;;;;;;951402;148;28346;-76
2023/01/06 10:57:58;;;;;;;0.55;0.55;;;14.50;94.60;;;;;;950814;148;27262;-76
2023/01/06 11:00:25;;;;;;;0.70;0.65;;;14.50;94.70;;;;;;938018;150;27434;-76
2023/01/06 11:02:51;;;;;;;0.40;0.40;;;14.50;94.60;;;;;;954341;147;27432;-76
2023/01/06 11:05:18;;;;;;;1.00;0.68;;;14.60;94.40;;;;;;954975;147;27445;-76
2023/01/06 11:07:44;;;;;;;0.35;0.35;;;14.60;94.40;;;;;;954566;147;27260;-76
2023/01/06 11:10:14;;;;;;;0.50;0.50;;;14.60;94.30;;;;;;953479;147;27265;-77
2023/01/06 11:12:40;;;;;;;0.98;0.60;;;14.70;94.40;;;;;;952986;147;27752;-77
2023/01/06 11:15:07;;;;;;;0.40;0.40;;;14.70;94.20;;;;;;954168;147;27352;-76
2023/01/06 11:17:33;;;;;;;0.62;0.47;;;14.80;94.00;;;;;;954833;147;27402;-76
2023/01/06 11:20:12;;;;;;;0.70;0.62;;;14.80;93.80;;;;;;954785;147;27396;-77
2023/01/06 11:22:39;;;;;;;0.42;0.42;;;14.80;93.70;;;;;;955531;147;27325;-76
2023/01/06 11:25:21;;;;;;;0.62;0.62;;;14.90;93.50;;;;;;951356;147;27395;-77
2023/01/06 11:27:47;;;;;;;0.90;0.90;;;15.00;93.40;;;;;;948173;148;27364;-77
2023/01/06 11:30:25;;;;;;;1.30;0.57;;;15.00;93.10;;;;;;951797;147;27315;-76
2023/01/06 11:32:52;;;;;;;0.40;0.40;;;15.10;92.70;;;;;;941759;149;27341;-76
2023/01/06 11:35:19;;;;;;;4.55;0.90;;;15.10;92.60;;;;;;949840;148;27347;-77
2023/01/06 11:37:45;;;;;;;1.12;1.07;;;15.10;92.60;;;;;;949910;148;27394;-77
2023/01/06 11:40:30;;;;;;;1.32;0.80;;;15.20;92.90;;;;;;948914;148;27352;-77
2023/01/06 11:42:56;;;;;;;0.75;0.60;;;15.20;93.10;;;;;;949680;148;27497;-77
2023/01/06 11:45:29;;;;;;;0.50;0.50;;;15.30;93.00;;;;;;950291;148;27463;-77
2023/01/06 11:47:55;;;;;;;0.45;0.40;;;15.40;92.60;;;;;;949931;148;27467;-76
2023/01/06 11:50:22;;;;;;;1.27;0.62;;;15.40;92.40;;;;;;950058;148;27452;-77
2023/01/06 11:53:00;;;;;;;0.80;0.80;;;15.50;92.30;;;;;;950249;148;27361;-77
2023/01/06 11:55:27;;;;;;;0.93;0.93;;;15.50;92.10;;;;;;950018;148;27330;-77
2023/01/06 11:58:02;;;;;;;1.80;1.70;;;15.50;91.60;;;;;;950232;148;27419;-76
2023/01/06 12:00:47;;;;;;;1.20;1.10;;;15.50;91.60;;;;;;944074;148;27447;-77
2023/01/06 12:03:32;;;;;;;0.90;0.90;;;15.50;91.40;;;;;;943156;149;27325;-77
2023/01/06 12:05:58;;;;;;;1.20;1.10;;;15.50;91.10;;;;;;943423;148;27510;-77
2023/01/06 12:08:25;;;;;;;1.45;0.75;;;15.50;90.80;;;;;;942874;149;27368;-76
2023/01/06 12:10:54;;;;;;;2.15;1.55;;;15.40;90.90;;;;;;941616;149;27675;-76
2023/01/06 12:13:21;;;;;;;1.87;1.45;;;15.40;91.40;;;;;;941008;148;27509;-76
2023/01/06 12:15:47;;;;;;;1.12;1.10;;;15.40;91.00;;;;;;942120;149;27328;-77
2023/01/06 12:18:14;;;;;;;1.15;1.02;;;15.40;90.90;;;;;;941774;149;27350;-77
2023/01/06 12:20:41;;;;;;;1.20;1.10;;;15.40;90.90;;;;;;940463;149;27387;-77
2023/01/06 12:23:07;;;;;;;1.65;1.10;;;15.40;91.10;;;;;;942087;148;27410;-76
2023/01/06 12:25:37;;;;;;;0.82;0.82;;;15.40;91.00;;;;;;940615;148;27421;-76
2023/01/06 12:28:06;;;;;;;1.10;1.00;;;15.40;91.10;;;;;;941846;149;27323;-77
2023/01/06 12:30:38;;;;;;;0.68;0.68;;;15.40;91.10;;;;;;940463;149;27335;-77
2023/01/06 12:33:16;;;;;;;0.75;0.75;;;15.40;91.00;;;;;;930806;151;27281;-77
2023/01/06 12:35:43;;;;;;;0.90;0.90;;;15.40;90.80;;;;;;934721;149;27311;-79
2023/01/06 12:38:15;;;;;;;1.15;1.05;;;15.40;90.80;;;;;;945430;151;27357;-76
2023/01/06 12:40:53;;;;;;;0.85;0.85;;;15.40;90.80;;;;;;946899;150;27420;-77
2023/01/06 12:43:22;;;;;;;0.75;0.75;;;15.40;90.80;;;;;;953999;147;27330;-77
2023/01/06 12:45:58;;;;;;;1.15;0.98;;;15.40;90.60;;;;;;947283;151;27356;-76
2023/01/06 12:48:43;;;;;;;0.90;0.90;;;15.40;90.50;;;;;;945737;150;27363;-76
2023/01/06 12:51:12;;;;;;;1.75;0.70;;;15.40;90.40;;;;;;936915;151;27827;-76
2023/01/06 12:53:42;;;;;;;0.80;0.80;;;15.40;89.80;;;;;;949569;150;27294;-77
2023/01/06 12:56:32;;;;;;;0.72;0.72;;;15.30;89.80;;;;;;946927;150;27429;-77
2023/01/06 12:59:13;;;;;;;1.37;1.10;;;15.30;90.20;;;;;;946392;148;27305;-77
2023/01/06 13:01:59;;;;;;;0.80;0.80;;;15.30;90.20;;;;;;959156;147;27318;-77